KFHR/FHR METAR and TAF weather

Enter ICAO airport designator
Station Type Date Time Source
KFHR METAR 2021/08/02 02:53 UTC NOAA

KFHR 020253Z AUTO 14008KT 10SM CLR 14/12 A3006 RMK AO2 SLP180 T01440122 56005 TSNO


Station Type Date Time Source
KFHR Decoded METAR 2021/08/02 02:53 UTC NOAA

FRIDAY HARBOR AIRPORT, WA, United States (KFHR) 48-31N 123-02W 32M
Aug 01, 2021 - 10:53 PM EDT / 2021.08.02 0253 UTC
Wind: from the SE (140 degrees) at 9 MPH (8 KT):0
Visibility: 10 mile(s):0
Sky conditions: clear
Temperature: 57.9 F (14.4 C)
Dew Point: 54.0 F (12.2 C)
Relative Humidity: 86%
Pressure (altimeter): 30.06 in. Hg (1017 hPa)
Pressure tendency: 0.01 inches (0.5 hPa) lower than three hours ago
ob: KFHR 020253Z AUTO 14008KT 10SM CLR 14/12 A3006 RMK AO2 SLP180 T01440122 56005 TSNO
cycle: 3

Station Type Date Time Source
KFHR TAF UTC NOAA

Error!

Example: see airport list